• location
  • image
mod_vvisit_countermod_vvisit_countermod_vvisit_countermod_vvisit_countermod_vvisit_countermod_vvisit_counter
mod_vvisit_counterToday151
mod_vvisit_counterYesterday1374
mod_vvisit_counterThis week151
mod_vvisit_counterLast week5020
mod_vvisit_counterThis month7193
mod_vvisit_counterLast month19770
mod_vvisit_counterAll days792353

We have: 55 guests, 1 bots online
Your IP: 54.90.92.204
 , 
Today: Dec 11, 2017
Airport / Company / List of services

List of services

  

Services of Siauliai International Airport:

 

Leading (follow me)

Ground services

Aircraft loading/unloading

Aircraft parking

Aircraft security

Aircraft fuel supply

Passenger baggage service

Business class passenger service

Submission of information to passengers

Serving meals to passengers and crew

Additional services for aircraft crewmembers

Aviation Security

Dining Cafe

First medical aid

Hotel reservations

Transporting crew to/from the city

Taxi booking 

Border procedures

Customs procedures

 

Today

Monday, 11 December 2017

Weather Forecast

Siauliai °C
   

Aviation Weather Forecast

[source: ADDS]
METAR
EYSA 110350Z 12011KT 9999 FEW012 BKN150 M02/M03 Q0994 R14L/19//95 R14R/19//95 BLU TEMPO SCT011 GRN =
TAF
TAF EYSA 110201Z 1103/1112 14014KT 7000 OVC015 TEMPO 1106/1112 3000 SN BKN005 =
SR / SS: 06:43 / 13:59 UTC (EYSA 2017-12-11)

Search

Who's Online

We have 56 guests online

tic logo en